sensor_id;sensor_type;location;lat;lon;timestamp;temperature;humidity
65460;DHT22;52058;49.822;6.754;2023-08-08T00:00:40;10.65;98.17
65460;DHT22;52058;49.822;6.754;2023-08-08T00:03:07;10.58;98.35
65460;DHT22;52058;49.822;6.754;2023-08-08T00:05:34;10.51;98.74
65460;DHT22;52058;49.822;6.754;2023-08-08T00:08:00;10.46;98.90
65460;DHT22;52058;49.822;6.754;2023-08-08T00:10:28;10.41;98.92
65460;DHT22;52058;49.822;6.754;2023-08-08T00:12:55;10.37;98.98
65460;DHT22;52058;49.822;6.754;2023-08-08T00:15:22;10.36;98.95
65460;DHT22;52058;49.822;6.754;2023-08-08T00:17:48;10.37;99.04
65460;DHT22;52058;49.822;6.754;2023-08-08T00:20:15;10.29;99.07
65460;DHT22;52058;49.822;6.754;2023-08-08T00:22:41;10.26;98.92
65460;DHT22;52058;49.822;6.754;2023-08-08T00:25:08;10.19;99.15
65460;DHT22;52058;49.822;6.754;2023-08-08T00:27:36;10.20;99.65
65460;DHT22;52058;49.822;6.754;2023-08-08T00:30:08;10.19;99.47
65460;DHT22;52058;49.822;6.754;2023-08-08T00:32:35;10.19;99.49
65460;DHT22;52058;49.822;6.754;2023-08-08T00:35:01;10.20;99.69
65460;DHT22;52058;49.822;6.754;2023-08-08T00:37:28;10.16;99.38
65460;DHT22;52058;49.822;6.754;2023-08-08T00:39:54;10.09;99.31
65460;DHT22;52058;49.822;6.754;2023-08-08T00:42:21;10.06;99.44
65460;DHT22;52058;49.822;6.754;2023-08-08T00:44:49;10.02;99.58
65460;DHT22;52058;49.822;6.754;2023-08-08T00:47:16;10.00;99.38
65460;DHT22;52058;49.822;6.754;2023-08-08T00:49:43;9.96;99.32
65460;DHT22;52058;49.822;6.754;2023-08-08T00:52:12;9.98;99.42
65460;DHT22;52058;49.822;6.754;2023-08-08T00:54:38;9.96;99.24
65460;DHT22;52058;49.822;6.754;2023-08-08T00:57:05;9.89;99.16
65460;DHT22;52058;49.822;6.754;2023-08-08T00:59:32;9.86;99.48
65460;DHT22;52058;49.822;6.754;2023-08-08T01:02:00;9.89;99.75
65460;DHT22;52058;49.822;6.754;2023-08-08T01:04:27;9.82;99.76
65460;DHT22;52058;49.822;6.754;2023-08-08T01:07:00;9.82;99.85
65460;DHT22;52058;49.822;6.754;2023-08-08T01:09:32;9.79;99.79
65460;DHT22;52058;49.822;6.754;2023-08-08T01:12:02;9.85;99.96
65460;DHT22;52058;49.822;6.754;2023-08-08T01:14:30;9.83;99.98
65460;DHT22;52058;49.822;6.754;2023-08-08T01:17:00;9.82;99.77
65460;DHT22;52058;49.822;6.754;2023-08-08T01:19:31;9.79;99.93
65460;DHT22;52058;49.822;6.754;2023-08-08T01:22:01;9.77;99.73
65460;DHT22;52058;49.822;6.754;2023-08-08T01:24:30;9.68;99.70
65460;DHT22;52058;49.822;6.754;2023-08-08T01:26:58;9.68;99.63
65460;DHT22;52058;49.822;6.754;2023-08-08T01:29:25;9.68;99.97
65460;DHT22;52058;49.822;6.754;2023-08-08T01:31:52;9.62;99.76
65460;DHT22;52058;49.822;6.754;2023-08-08T01:34:19;9.67;99.91
65460;DHT22;52058;49.822;6.754;2023-08-08T01:36:49;9.63;99.83
65460;DHT22;52058;49.822;6.754;2023-08-08T01:39:17;9.61;99.51
65460;DHT22;52058;49.822;6.754;2023-08-08T01:41:48;9.54;99.56
65460;DHT22;52058;49.822;6.754;2023-08-08T01:44:15;9.54;99.80
65460;DHT22;52058;49.822;6.754;2023-08-08T01:46:43;9.47;99.85
65460;DHT22;52058;49.822;6.754;2023-08-08T01:49:09;9.41;99.63
65460;DHT22;52058;49.822;6.754;2023-08-08T01:51:36;9.37;99.73
65460;DHT22;52058;49.822;6.754;2023-08-08T01:54:02;9.37;99.99
65460;DHT22;52058;49.822;6.754;2023-08-08T01:56:29;9.35;99.99
65460;DHT22;52058;49.822;6.754;2023-08-08T01:58:57;9.41;99.99
65460;DHT22;52058;49.822;6.754;2023-08-08T02:01:23;9.34;99.99
65460;DHT22;52058;49.822;6.754;2023-08-08T02:03:50;9.34;99.99
65460;DHT22;52058;49.822;6.754;2023-08-08T02:06:17;9.34;99.99
65460;DHT22;52058;49.822;6.754;2023-08-08T02:08:44;9.31;99.99
65460;DHT22;52058;49.822;6.754;2023-08-08T02:11:11;9.28;99.99
65460;DHT22;52058;49.822;6.754;2023-08-08T02:13:37;9.32;99.99
65460;DHT22;52058;49.822;6.754;2023-08-08T02:16:05;9.30;99.99
65460;DHT22;52058;49.822;6.754;2023-08-08T02:18:32;9.24;99.99
65460;DHT22;52058;49.822;6.754;2023-08-08T02:20:58;9.26;99.99
65460;DHT22;52058;49.822;6.754;2023-08-08T02:23:25;9.20;99.99
65460;DHT22;52058;49.822;6.754;2023-08-08T02:25:52;9.16;99.99
65460;DHT22;52058;49.822;6.754;2023-08-08T02:28:18;9.11;99.99
65460;DHT22;52058;49.822;6.754;2023-08-08T02:30:45;9.09;99.99
65460;DHT22;52058;49.822;6.754;2023-08-08T02:33:13;9.09;99.99
65460;DHT22;52058;49.822;6.754;2023-08-08T02:35:40;9.06;99.99
65460;DHT22;52058;49.822;6.754;2023-08-08T02:38:06;9.04;99.99
65460;DHT22;52058;49.822;6.754;2023-08-08T02:40:33;9.07;99.99
65460;DHT22;52058;49.822;6.754;2023-08-08T02:43:00;9.02;99.99
65460;DHT22;52058;49.822;6.754;2023-08-08T02:45:26;8.99;99.99
65460;DHT22;52058;49.822;6.754;2023-08-08T02:47:53;8.97;99.99
65460;DHT22;52058;49.822;6.754;2023-08-08T02:50:21;8.99;99.99
65460;DHT22;52058;49.822;6.754;2023-08-08T02:52:47;8.93;99.99
65460;DHT22;52058;49.822;6.754;2023-08-08T02:55:14;9.06;99.99
65460;DHT22;52058;49.822;6.754;2023-08-08T02:57:41;9.09;99.99
65460;DHT22;52058;49.822;6.754;2023-08-08T03:00:08;9.04;99.99
65460;DHT22;52058;49.822;6.754;2023-08-08T03:02:36;9.00;99.99
65460;DHT22;52058;49.822;6.754;2023-08-08T03:05:03;9.14;99.99
65460;DHT22;52058;49.822;6.754;2023-08-08T03:07:32;9.09;99.99
65460;DHT22;52058;49.822;6.754;2023-08-08T03:09:58;9.14;99.99
65460;DHT22;52058;49.822;6.754;2023-08-08T03:12:25;9.20;99.99
65460;DHT22;52058;49.822;6.754;2023-08-08T03:14:52;9.13;99.99
65460;DHT22;52058;49.822;6.754;2023-08-08T03:17:18;9.17;99.99
65460;DHT22;52058;49.822;6.754;2023-08-08T03:19:45;9.14;99.99
65460;DHT22;52058;49.822;6.754;2023-08-08T03:22:11;9.13;99.99
65460;DHT22;52058;49.822;6.754;2023-08-08T03:24:39;9.14;99.99
65460;DHT22;52058;49.822;6.754;2023-08-08T03:27:06;9.11;99.99
65460;DHT22;52058;49.822;6.754;2023-08-08T03:29:32;9.21;99.99
65460;DHT22;52058;49.822;6.754;2023-08-08T03:31:59;9.16;99.99
65460;DHT22;52058;49.822;6.754;2023-08-08T03:34:25;9.13;99.99
65460;DHT22;52058;49.822;6.754;2023-08-08T03:36:52;9.07;99.99
65460;DHT22;52058;49.822;6.754;2023-08-08T03:39:18;9.03;99.99
65460;DHT22;52058;49.822;6.754;2023-08-08T03:41:46;9.03;99.99
65460;DHT22;52058;49.822;6.754;2023-08-08T03:44:13;8.99;99.99
65460;DHT22;52058;49.822;6.754;2023-08-08T03:46:39;9.02;99.99
65460;DHT22;52058;49.822;6.754;2023-08-08T03:49:06;8.97;99.99
65460;DHT22;52058;49.822;6.754;2023-08-08T03:51:33;8.97;99.99
65460;DHT22;52058;49.822;6.754;2023-08-08T03:54:00;8.97;99.99
65460;DHT22;52058;49.822;6.754;2023-08-08T03:56:26;8.99;99.99
65460;DHT22;52058;49.822;6.754;2023-08-08T03:58:55;8.90;99.99
65460;DHT22;52058;49.822;6.754;2023-08-08T04:01:22;8.84;99.99
65460;DHT22;52058;49.822;6.754;2023-08-08T04:03:49;8.87;99.99
65460;DHT22;52058;49.822;6.754;2023-08-08T04:06:15;8.86;99.99
65460;DHT22;52058;49.822;6.754;2023-08-08T04:08:42;8.77;99.99
65460;DHT22;52058;49.822;6.754;2023-08-08T04:11:08;8.77;99.99
65460;DHT22;52058;49.822;6.754;2023-08-08T04:13:35;8.76;99.99
65460;DHT22;52058;49.822;6.754;2023-08-08T04:16:03;8.76;99.99
65460;DHT22;52058;49.822;6.754;2023-08-08T04:18:30;8.73;99.99
65460;DHT22;52058;49.822;6.754;2023-08-08T04:20:56;8.79;99.99
65460;DHT22;52058;49.822;6.754;2023-08-08T04:23:23;8.77;99.99
65460;DHT22;52058;49.822;6.754;2023-08-08T04:25:51;8.75;99.99
65460;DHT22;52058;49.822;6.754;2023-08-08T04:28:17;8.77;99.99
65460;DHT22;52058;49.822;6.754;2023-08-08T04:30:44;8.89;99.99
65460;DHT22;52058;49.822;6.754;2023-08-08T04:33:12;8.86;99.99
65460;DHT22;52058;49.822;6.754;2023-08-08T04:35:38;8.83;99.99
65460;DHT22;52058;49.822;6.754;2023-08-08T04:38:05;8.87;99.99
65460;DHT22;52058;49.822;6.754;2023-08-08T04:40:31;8.87;99.99
65460;DHT22;52058;49.822;6.754;2023-08-08T04:42:58;8.89;99.99
65460;DHT22;52058;49.822;6.754;2023-08-08T04:45:24;8.89;99.99
65460;DHT22;52058;49.822;6.754;2023-08-08T04:47:52;8.93;99.99
65460;DHT22;52058;49.822;6.754;2023-08-08T04:50:19;8.94;99.99
65460;DHT22;52058;49.822;6.754;2023-08-08T04:52:46;8.96;99.99
65460;DHT22;52058;49.822;6.754;2023-08-08T04:55:12;8.97;99.99
65460;DHT22;52058;49.822;6.754;2023-08-08T04:57:39;8.97;99.99
65460;DHT22;52058;49.822;6.754;2023-08-08T05:00:06;8.96;99.99
65460;DHT22;52058;49.822;6.754;2023-08-08T05:02:34;9.02;99.99
65460;DHT22;52058;49.822;6.754;2023-08-08T05:05:00;9.04;99.99
65460;DHT22;52058;49.822;6.754;2023-08-08T05:07:28;9.09;99.99
65460;DHT22;52058;49.822;6.754;2023-08-08T05:09:55;9.13;99.99
65460;DHT22;52058;49.822;6.754;2023-08-08T05:12:21;9.28;99.99
65460;DHT22;52058;49.822;6.754;2023-08-08T05:14:48;9.31;99.99
65460;DHT22;52058;49.822;6.754;2023-08-08T05:17:14;9.42;99.99
65460;DHT22;52058;49.822;6.754;2023-08-08T05:19:41;9.51;99.99
65460;DHT22;52058;49.822;6.754;2023-08-08T05:22:07;9.57;99.99
65460;DHT22;52058;49.822;6.754;2023-08-08T05:24:35;9.67;99.99
65460;DHT22;52058;49.822;6.754;2023-08-08T05:27:02;9.75;99.99
65460;DHT22;52058;49.822;6.754;2023-08-08T05:29:29;9.86;99.99
65460;DHT22;52058;49.822;6.754;2023-08-08T05:31:56;9.95;99.99
65460;DHT22;52058;49.822;6.754;2023-08-08T05:34:23;10.08;99.99
65460;DHT22;52058;49.822;6.754;2023-08-08T05:36:50;10.17;99.99
65460;DHT22;52058;49.822;6.754;2023-08-08T05:39:16;10.32;99.99
65460;DHT22;52058;49.822;6.754;2023-08-08T05:41:44;10.44;99.99
65460;DHT22;52058;49.822;6.754;2023-08-08T05:44:11;10.57;99.99
65460;DHT22;52058;49.822;6.754;2023-08-08T05:46:37;10.64;99.99
65460;DHT22;52058;49.822;6.754;2023-08-08T05:49:04;10.67;99.99
65460;DHT22;52058;49.822;6.754;2023-08-08T05:51:31;10.72;99.99
65460;DHT22;52058;49.822;6.754;2023-08-08T05:53:58;10.78;99.99
65460;DHT22;52058;49.822;6.754;2023-08-08T05:56:25;10.81;99.99
65460;DHT22;52058;49.822;6.754;2023-08-08T05:58:52;10.88;99.99
65460;DHT22;52058;49.822;6.754;2023-08-08T06:01:19;10.91;99.99
65460;DHT22;52058;49.822;6.754;2023-08-08T06:03:45;10.97;99.99
65460;DHT22;52058;49.822;6.754;2023-08-08T06:06:12;10.99;99.99
65460;DHT22;52058;49.822;6.754;2023-08-08T06:08:40;11.09;99.99
65460;DHT22;52058;49.822;6.754;2023-08-08T06:11:06;11.16;99.99
65460;DHT22;52058;49.822;6.754;2023-08-08T06:13:33;11.30;99.94
65460;DHT22;52058;49.822;6.754;2023-08-08T06:16:00;11.39;99.95
65460;DHT22;52058;49.822;6.754;2023-08-08T06:18:31;11.53;99.77
65460;DHT22;52058;49.822;6.754;2023-08-08T06:20:58;11.78;99.47
65460;DHT22;52058;49.822;6.754;2023-08-08T06:23:24;12.05;99.13
65460;DHT22;52058;49.822;6.754;2023-08-08T06:25:51;12.32;97.80
65460;DHT22;52058;49.822;6.754;2023-08-08T06:28:18;12.63;97.24
65460;DHT22;52058;49.822;6.754;2023-08-08T06:30:47;12.92;96.99
65460;DHT22;52058;49.822;6.754;2023-08-08T06:33:15;13.23;96.03
65460;DHT22;52058;49.822;6.754;2023-08-08T06:35:41;13.40;93.64
65460;DHT22;52058;49.822;6.754;2023-08-08T06:38:08;13.61;93.94
65460;DHT22;52058;49.822;6.754;2023-08-08T06:40:35;13.86;93.51
65460;DHT22;52058;49.822;6.754;2023-08-08T06:43:01;14.00;92.68
65460;DHT22;52058;49.822;6.754;2023-08-08T06:45:28;14.05;91.22
65460;DHT22;52058;49.822;6.754;2023-08-08T06:47:54;14.09;91.38
65460;DHT22;52058;49.822;6.754;2023-08-08T06:50:22;14.05;91.41
65460;DHT22;52058;49.822;6.754;2023-08-08T06:52:50;14.26;91.29
65460;DHT22;52058;49.822;6.754;2023-08-08T06:55:16;14.47;89.70
65460;DHT22;52058;49.822;6.754;2023-08-08T06:57:43;14.71;89.15
65460;DHT22;52058;49.822;6.754;2023-08-08T07:00:11;14.71;88.32
65460;DHT22;52058;49.822;6.754;2023-08-08T07:02:38;14.82;87.50
65460;DHT22;52058;49.822;6.754;2023-08-08T07:05:05;14.74;87.21
65460;DHT22;52058;49.822;6.754;2023-08-08T07:07:34;14.91;86.81
65460;DHT22;52058;49.822;6.754;2023-08-08T07:10:01;14.95;86.32
65460;DHT22;52058;49.822;6.754;2023-08-08T07:12:28;15.12;85.88
65460;DHT22;52058;49.822;6.754;2023-08-08T07:14:55;15.16;85.55
65460;DHT22;52058;49.822;6.754;2023-08-08T07:17:21;15.18;85.06
65460;DHT22;52058;49.822;6.754;2023-08-08T07:19:48;15.26;85.91
65460;DHT22;52058;49.822;6.754;2023-08-08T07:22:14;15.25;85.01
65460;DHT22;52058;49.822;6.754;2023-08-08T07:24:42;15.43;84.95
65460;DHT22;52058;49.822;6.754;2023-08-08T07:27:09;15.46;84.66
65460;DHT22;52058;49.822;6.754;2023-08-08T07:29:36;15.66;83.54
65460;DHT22;52058;49.822;6.754;2023-08-08T07:32:03;15.84;83.11
65460;DHT22;52058;49.822;6.754;2023-08-08T07:34:30;16.02;82.45
65460;DHT22;52058;49.822;6.754;2023-08-08T07:36:57;16.14;82.39
65460;DHT22;52058;49.822;6.754;2023-08-08T07:39:24;16.11;82.51
65460;DHT22;52058;49.822;6.754;2023-08-08T07:41:52;16.12;81.54
65460;DHT22;52058;49.822;6.754;2023-08-08T07:44:18;16.19;81.80
65460;DHT22;52058;49.822;6.754;2023-08-08T07:46:45;16.35;81.59
65460;DHT22;52058;49.822;6.754;2023-08-08T07:49:12;16.30;81.30
65460;DHT22;52058;49.822;6.754;2023-08-08T07:51:38;16.39;81.55
65460;DHT22;52058;49.822;6.754;2023-08-08T07:54:05;16.28;81.66
65460;DHT22;52058;49.822;6.754;2023-08-08T07:56:34;16.41;80.73
65460;DHT22;52058;49.822;6.754;2023-08-08T07:59:02;16.59;80.46
65460;DHT22;52058;49.822;6.754;2023-08-08T08:01:29;16.80;80.15
65460;DHT22;52058;49.822;6.754;2023-08-08T08:03:55;16.90;79.81
65460;DHT22;52058;49.822;6.754;2023-08-08T08:06:22;17.10;79.76
65460;DHT22;52058;49.822;6.754;2023-08-08T08:08:48;17.36;78.78
65460;DHT22;52058;49.822;6.754;2023-08-08T08:11:15;17.32;78.33
65460;DHT22;52058;49.822;6.754;2023-08-08T08:13:42;17.15;78.03
65460;DHT22;52058;49.822;6.754;2023-08-08T08:16:10;17.11;78.77
65460;DHT22;52058;49.822;6.754;2023-08-08T08:18:36;17.25;78.57
65460;DHT22;52058;49.822;6.754;2023-08-08T08:21:03;17.32;78.91
65460;DHT22;52058;49.822;6.754;2023-08-08T08:23:30;17.28;79.31
65460;DHT22;52058;49.822;6.754;2023-08-08T08:25:57;17.27;79.85
65460;DHT22;52058;49.822;6.754;2023-08-08T08:28:25;17.07;79.28
65460;DHT22;52058;49.822;6.754;2023-08-08T08:30:52;17.15;79.55
65460;DHT22;52058;49.822;6.754;2023-08-08T08:33:19;17.41;79.33
65460;DHT22;52058;49.822;6.754;2023-08-08T08:35:46;17.28;79.09
65460;DHT22;52058;49.822;6.754;2023-08-08T08:38:13;17.28;79.59
65460;DHT22;52058;49.822;6.754;2023-08-08T08:40:41;17.23;79.29
65460;DHT22;52058;49.822;6.754;2023-08-08T08:43:10;17.30;79.06
65460;DHT22;52058;49.822;6.754;2023-08-08T08:45:38;17.48;78.72
65460;DHT22;52058;49.822;6.754;2023-08-08T08:48:07;17.72;78.48
65460;DHT22;52058;49.822;6.754;2023-08-08T08:50:37;18.03;77.64
65460;DHT22;52058;49.822;6.754;2023-08-08T08:53:05;18.02;76.97
65460;DHT22;52058;49.822;6.754;2023-08-08T08:55:32;18.16;76.82
65460;DHT22;52058;49.822;6.754;2023-08-08T08:57:59;18.54;75.93
65460;DHT22;52058;49.822;6.754;2023-08-08T09:00:25;18.61;76.42
65460;DHT22;52058;49.822;6.754;2023-08-08T09:02:52;18.38;76.15
65460;DHT22;52058;49.822;6.754;2023-08-08T09:05:20;18.57;75.79
65460;DHT22;52058;49.822;6.754;2023-08-08T09:07:49;18.94;74.65
65460;DHT22;52058;49.822;6.754;2023-08-08T09:10:17;18.96;75.20
65460;DHT22;52058;49.822;6.754;2023-08-08T09:12:44;18.96;74.56
65460;DHT22;52058;49.822;6.754;2023-08-08T09:15:12;18.79;74.64
65460;DHT22;52058;49.822;6.754;2023-08-08T09:17:40;19.06;74.30
65460;DHT22;52058;49.822;6.754;2023-08-08T09:20:08;19.10;72.52
65460;DHT22;52058;49.822;6.754;2023-08-08T09:22:36;19.06;72.01
65460;DHT22;52058;49.822;6.754;2023-08-08T09:25:05;19.26;71.25
65460;DHT22;52058;49.822;6.754;2023-08-08T09:27:33;19.20;71.25
65460;DHT22;52058;49.822;6.754;2023-08-08T09:30:00;19.47;69.59
65460;DHT22;52058;49.822;6.754;2023-08-08T09:32:29;19.75;69.49
65460;DHT22;52058;49.822;6.754;2023-08-08T09:34:56;20.04;69.04
65460;DHT22;52058;49.822;6.754;2023-08-08T09:37:23;19.88;68.15
65460;DHT22;52058;49.822;6.754;2023-08-08T09:39:56;20.26;67.18
65460;DHT22;52058;49.822;6.754;2023-08-08T09:42:26;20.33;67.71
65460;DHT22;52058;49.822;6.754;2023-08-08T09:44:53;20.11;67.37
65460;DHT22;52058;49.822;6.754;2023-08-08T09:47:20;20.08;66.75
65460;DHT22;52058;49.822;6.754;2023-08-08T09:49:48;20.14;66.23
65460;DHT22;52058;49.822;6.754;2023-08-08T09:52:15;20.35;66.54
65460;DHT22;52058;49.822;6.754;2023-08-08T09:54:41;20.21;65.60
65460;DHT22;52058;49.822;6.754;2023-08-08T09:57:09;20.17;66.96
65460;DHT22;52058;49.822;6.754;2023-08-08T09:59:37;20.11;66.04
65460;DHT22;52058;49.822;6.754;2023-08-08T10:02:04;20.02;66.36
65460;DHT22;52058;49.822;6.754;2023-08-08T10:04:32;20.28;65.42
65460;DHT22;52058;49.822;6.754;2023-08-08T10:06:59;20.67;64.87
65460;DHT22;52058;49.822;6.754;2023-08-08T10:09:26;20.65;64.84
65460;DHT22;52058;49.822;6.754;2023-08-08T10:11:54;20.77;64.75
65460;DHT22;52058;49.822;6.754;2023-08-08T10:14:28;20.84;64.30
65460;DHT22;52058;49.822;6.754;2023-08-08T10:16:56;20.57;64.93
65460;DHT22;52058;49.822;6.754;2023-08-08T10:19:23;20.32;64.76
65460;DHT22;52058;49.822;6.754;2023-08-08T10:21:56;20.56;65.62
65460;DHT22;52058;49.822;6.754;2023-08-08T10:24:23;20.77;65.51
65460;DHT22;52058;49.822;6.754;2023-08-08T10:26:53;20.42;66.28
65460;DHT22;52058;49.822;6.754;2023-08-08T10:29:20;20.77;64.62
65460;DHT22;52058;49.822;6.754;2023-08-08T10:31:53;21.15;64.19
65460;DHT22;52058;49.822;6.754;2023-08-08T10:34:27;21.14;62.93
65460;DHT22;52058;49.822;6.754;2023-08-08T10:37:04;21.59;62.52
65460;DHT22;52058;49.822;6.754;2023-08-08T10:39:31;21.07;60.94
65460;DHT22;52058;49.822;6.754;2023-08-08T10:42:01;21.35;61.31
65460;DHT22;52058;49.822;6.754;2023-08-08T10:44:29;21.24;61.25
65460;DHT22;52058;49.822;6.754;2023-08-08T10:46:56;21.35;61.62
65460;DHT22;52058;49.822;6.754;2023-08-08T10:49:24;21.06;62.01
65460;DHT22;52058;49.822;6.754;2023-08-08T10:51:50;20.88;60.93
65460;DHT22;52058;49.822;6.754;2023-08-08T10:54:19;20.88;61.57
65460;DHT22;52058;49.822;6.754;2023-08-08T10:56:49;20.79;60.93
65460;DHT22;52058;49.822;6.754;2023-08-08T10:59:17;20.81;62.02
65460;DHT22;52058;49.822;6.754;2023-08-08T11:01:48;20.56;62.52
65460;DHT22;52058;49.822;6.754;2023-08-08T11:04:16;20.63;63.27
65460;DHT22;52058;49.822;6.754;2023-08-08T11:06:44;20.94;62.67
65460;DHT22;52058;49.822;6.754;2023-08-08T11:09:10;20.93;61.95
65460;DHT22;52058;49.822;6.754;2023-08-08T11:11:37;20.77;62.12
65460;DHT22;52058;49.822;6.754;2023-08-08T11:14:12;21.11;62.29
65460;DHT22;52058;49.822;6.754;2023-08-08T11:16:38;21.21;61.74
65460;DHT22;52058;49.822;6.754;2023-08-08T11:19:05;21.42;60.43
65460;DHT22;52058;49.822;6.754;2023-08-08T11:21:35;21.30;61.32
65460;DHT22;52058;49.822;6.754;2023-08-08T11:24:05;21.55;61.14
65460;DHT22;52058;49.822;6.754;2023-08-08T11:26:33;21.56;60.73
65460;DHT22;52058;49.822;6.754;2023-08-08T11:29:00;21.66;60.50
65460;DHT22;52058;49.822;6.754;2023-08-08T11:31:27;21.42;59.55
65460;DHT22;52058;49.822;6.754;2023-08-08T11:33:55;21.58;59.96
65460;DHT22;52058;49.822;6.754;2023-08-08T11:36:22;21.61;59.42
65460;DHT22;52058;49.822;6.754;2023-08-08T11:38:49;21.72;58.95
65460;DHT22;52058;49.822;6.754;2023-08-08T11:41:21;21.99;58.71
65460;DHT22;52058;49.822;6.754;2023-08-08T11:43:49;22.18;58.94
65460;DHT22;52058;49.822;6.754;2023-08-08T11:46:17;22.61;58.11
65460;DHT22;52058;49.822;6.754;2023-08-08T11:48:46;22.30;57.91
65460;DHT22;52058;49.822;6.754;2023-08-08T11:51:14;22.06;59.19
65460;DHT22;52058;49.822;6.754;2023-08-08T11:53:48;21.41;60.24
65460;DHT22;52058;49.822;6.754;2023-08-08T11:56:15;20.96;60.99
65460;DHT22;52058;49.822;6.754;2023-08-08T11:58:43;21.30;61.42
65460;DHT22;52058;49.822;6.754;2023-08-08T12:01:09;21.31;61.24
65460;DHT22;52058;49.822;6.754;2023-08-08T12:03:39;21.14;61.37
65460;DHT22;52058;49.822;6.754;2023-08-08T12:06:11;20.90;62.54
65460;DHT22;52058;49.822;6.754;2023-08-08T12:08:39;20.59;62.69
65460;DHT22;52058;49.822;6.754;2023-08-08T12:11:08;20.50;63.12
65460;DHT22;52058;49.822;6.754;2023-08-08T12:13:37;20.42;63.62
65460;DHT22;52058;49.822;6.754;2023-08-08T12:16:06;20.15;64.30
65460;DHT22;52058;49.822;6.754;2023-08-08T12:18:33;19.95;65.01
65460;DHT22;52058;49.822;6.754;2023-08-08T12:21:00;19.75;65.58
65460;DHT22;52058;49.822;6.754;2023-08-08T12:23:27;19.74;65.88
65460;DHT22;52058;49.822;6.754;2023-08-08T12:25:54;19.84;66.15
65460;DHT22;52058;49.822;6.754;2023-08-08T12:28:21;19.64;66.39
65460;DHT22;52058;49.822;6.754;2023-08-08T12:30:47;19.99;65.89
65460;DHT22;52058;49.822;6.754;2023-08-08T12:33:15;20.36;65.56
65460;DHT22;52058;49.822;6.754;2023-08-08T12:35:42;20.30;65.68
65460;DHT22;52058;49.822;6.754;2023-08-08T12:38:08;20.14;66.43
65460;DHT22;52058;49.822;6.754;2023-08-08T12:40:35;19.82;67.61
65460;DHT22;52058;49.822;6.754;2023-08-08T12:43:02;19.75;68.90
65460;DHT22;52058;49.822;6.754;2023-08-08T12:45:29;19.78;69.74
65460;DHT22;52058;49.822;6.754;2023-08-08T12:47:56;20.04;69.03
65460;DHT22;52058;49.822;6.754;2023-08-08T12:50:23;20.60;68.56
65460;DHT22;52058;49.822;6.754;2023-08-08T12:52:50;20.57;67.37
65460;DHT22;52058;49.822;6.754;2023-08-08T12:55:17;20.17;67.75
65460;DHT22;52058;49.822;6.754;2023-08-08T12:57:45;20.35;67.33
65460;DHT22;52058;49.822;6.754;2023-08-08T13:00:13;20.19;67.34
65460;DHT22;52058;49.822;6.754;2023-08-08T13:02:40;21.01;65.99
65460;DHT22;52058;49.822;6.754;2023-08-08T13:05:07;21.92;64.38
65460;DHT22;52058;49.822;6.754;2023-08-08T13:07:36;23.22;62.21
65460;DHT22;52058;49.822;6.754;2023-08-08T13:10:03;25.16;57.79
65460;DHT22;52058;49.822;6.754;2023-08-08T13:12:30;24.36;58.07
65460;DHT22;52058;49.822;6.754;2023-08-08T13:14:57;23.43;60.16
65460;DHT22;52058;49.822;6.754;2023-08-08T13:17:23;23.12;60.77
65460;DHT22;52058;49.822;6.754;2023-08-08T13:19:50;22.62;61.85
65460;DHT22;52058;49.822;6.754;2023-08-08T13:22:16;22.21;62.69
65460;DHT22;52058;49.822;6.754;2023-08-08T13:24:44;21.73;63.78
65460;DHT22;52058;49.822;6.754;2023-08-08T13:27:11;21.54;64.35
65460;DHT22;52058;49.822;6.754;2023-08-08T13:29:37;21.23;65.35
65460;DHT22;52058;49.822;6.754;2023-08-08T13:32:04;21.81;64.32
65460;DHT22;52058;49.822;6.754;2023-08-08T13:34:30;22.21;62.84
65460;DHT22;52058;49.822;6.754;2023-08-08T13:36:57;22.65;62.79
65460;DHT22;52058;49.822;6.754;2023-08-08T13:39:23;22.41;62.87
65460;DHT22;52058;49.822;6.754;2023-08-08T13:41:51;22.25;62.99
65460;DHT22;52058;49.822;6.754;2023-08-08T13:44:18;22.16;64.13
65460;DHT22;52058;49.822;6.754;2023-08-08T13:46:45;22.07;64.28
65460;DHT22;52058;49.822;6.754;2023-08-08T13:49:11;21.45;65.03
65460;DHT22;52058;49.822;6.754;2023-08-08T13:51:38;22.03;64.55
65460;DHT22;52058;49.822;6.754;2023-08-08T13:54:04;22.84;62.23
65460;DHT22;52058;49.822;6.754;2023-08-08T13:56:31;22.67;63.29
65460;DHT22;52058;49.822;6.754;2023-08-08T13:58:59;22.44;64.93
65460;DHT22;52058;49.822;6.754;2023-08-08T14:01:25;22.33;64.22
65460;DHT22;52058;49.822;6.754;2023-08-08T14:03:52;22.61;63.62
65460;DHT22;52058;49.822;6.754;2023-08-08T14:06:19;22.75;63.38
65460;DHT22;52058;49.822;6.754;2023-08-08T14:08:45;23.20;62.47
65460;DHT22;52058;49.822;6.754;2023-08-08T14:11:12;23.45;61.45
65460;DHT22;52058;49.822;6.754;2023-08-08T14:13:38;23.43;61.07
65460;DHT22;52058;49.822;6.754;2023-08-08T14:16:07;25.10;57.39
65460;DHT22;52058;49.822;6.754;2023-08-08T14:18:33;27.53;52.91
65460;DHT22;52058;49.822;6.754;2023-08-08T14:21:00;27.36;53.18
65460;DHT22;52058;49.822;6.754;2023-08-08T14:23:28;25.35;56.20
65460;DHT22;52058;49.822;6.754;2023-08-08T14:25:55;25.06;57.22
65460;DHT22;52058;49.822;6.754;2023-08-08T14:28:21;24.28;59.62
65460;DHT22;52058;49.822;6.754;2023-08-08T14:30:48;23.63;61.44
65460;DHT22;52058;49.822;6.754;2023-08-08T14:33:16;23.01;62.12
65460;DHT22;52058;49.822;6.754;2023-08-08T14:35:43;22.85;63.29
65460;DHT22;52058;49.822;6.754;2023-08-08T14:38:09;22.24;64.02
65460;DHT22;52058;49.822;6.754;2023-08-08T14:40:36;21.97;63.82
65460;DHT22;52058;49.822;6.754;2023-08-08T14:43:03;21.79;65.16
65460;DHT22;52058;49.822;6.754;2023-08-08T14:45:35;21.39;65.58
65460;DHT22;52058;49.822;6.754;2023-08-08T14:48:03;21.51;64.10
65460;DHT22;52058;49.822;6.754;2023-08-08T14:50:31;21.58;64.49
65460;DHT22;52058;49.822;6.754;2023-08-08T14:52:57;21.72;64.48
65460;DHT22;52058;49.822;6.754;2023-08-08T14:55:24;21.81;65.00
65460;DHT22;52058;49.822;6.754;2023-08-08T14:57:51;21.81;65.12
65460;DHT22;52058;49.822;6.754;2023-08-08T15:00:18;21.39;66.05
65460;DHT22;52058;49.822;6.754;2023-08-08T15:02:44;21.37;66.93
65460;DHT22;52058;49.822;6.754;2023-08-08T15:05:11;21.42;67.43
65460;DHT22;52058;49.822;6.754;2023-08-08T15:07:39;21.12;69.03
65460;DHT22;52058;49.822;6.754;2023-08-08T15:10:06;20.88;69.00
65460;DHT22;52058;49.822;6.754;2023-08-08T15:12:33;21.00;69.68
65460;DHT22;52058;49.822;6.754;2023-08-08T15:15:00;20.91;68.27
65460;DHT22;52058;49.822;6.754;2023-08-08T15:17:27;20.67;67.12
65460;DHT22;52058;49.822;6.754;2023-08-08T15:19:54;21.00;67.51
65460;DHT22;52058;49.822;6.754;2023-08-08T15:22:20;20.83;66.88
65460;DHT22;52058;49.822;6.754;2023-08-08T15:24:48;20.88;67.64
65460;DHT22;52058;49.822;6.754;2023-08-08T15:27:15;20.87;67.05
65460;DHT22;52058;49.822;6.754;2023-08-08T15:29:42;21.04;66.61
65460;DHT22;52058;49.822;6.754;2023-08-08T15:32:08;20.88;65.76
65460;DHT22;52058;49.822;6.754;2023-08-08T15:34:35;21.00;65.68